Terminal Aerodrome Forecast
Issued by NWS Flagstaff, AZ

Home | Current Version | Previous Version | Text Only | Print | Product List | Glossary On
Versions: 1 2 3 4 5 6 7 8 9 10 11 12 13
000
FTUS45 KFGZ 252300
TAFINW
TAF
KINW 252333Z 2600/2624 22018G25KT P6SM VCSH SCT060 BKN080
     FM260200 21012G21KT P6SM -SHRA OVC030
     FM261200 24012KT 5SM -SHRA BKN020 OVC040
     FM261900 28012G20KT P6SM VCSH SCT020 BKN040=

USA.gov is the U.S. government's official web portal to all federal, state and local government web resources and services.